Media Club - Wainwright, Loudon ((Loudon Wainwright III) Loudon Snowden Wainwright III) (MP3, Photo, Lyrics, Covers)
Legal Info  
newsabout ushelp (faq)searchdirectorylinkssoftwarechartsSwitch Language
 A   B   C   D   E   F   G   H   I   J   K   L   M   N   O   P   Q   R   S   T   U   V   W   X   Y   Z   0...9 
                                                                                  
directory
border=0

  Wainwright, Loudon

Wainwright, Loudon
  Band/Artist:  Wainwright, Loudon
Country:  USA
Genre:  Blues;  Soundtrack
Style:
URL's:  www.lwiii.com/
find track in this albums
Discography:
year title tracks added
(updated)
 Albums
2018 Surviving Twin 2018 18 21.11.2018
2018 Years In The Making (CD 1) 2018 23 21.11.2018
2018 Years In The Making (CD 2) 2018 19 21.11.2018
2014 Haven't Got The Blues (Yet) 2014 14 21.11.2018
2012 Older Than My Old Man Now 2012 15 21.11.2018
2010 10 Songs For The New Depression 2010 10 31.07.2012
2009 High Wide & Handsome: The Charlie Poole Project (CD 1) 2009 15 31.07.2012
2009 High Wide & Handsome: The Charlie Poole Project (CD 2) 2009 15 31.07.2012
2008 Recovery 2008 14 31.07.2012
2007 Strange Weirdos: Music From And Inspired By The Film Knocked Up 2007 14 14.01.2008
2005 Here Comes The Choppers 2005 12 31.07.2012
2000 The Last Man On Earth 2000 13 31.07.2012
1999 Social Studies 1999 15 31.07.2012
1997 Little Ship 1997 15 31.07.2012
1995 Grown Man 1995 15 31.07.2012
1992 History 1992 14 31.07.2012
1989 Therapy 1989 13 31.07.2012
1986 More Love Songs 1986 14 31.07.2012
1985 I'm Alright 1985 12 31.07.2012
1983 Fame And Wealth 1983 12 31.07.2012
1978 Final Exam 1978 11 31.07.2012
1976 T Shirt 1976 12 31.07.2012
1975 Unrequited 1975 17 31.07.2012
1973 Attempted Mustache 1973 12 31.07.2012
1972 Album III 1972 12 31.07.2012
1971 Album II 1971 12 31.07.2012
1970 Loudon Wainwright III 1970 11 31.07.2012
 Bootlegs
2011 Live At Jeanne Rimsky Theater, Port Washington, NY, March 5, 2011 2011 21 21.11.2018
2010 Live At Glastonbury Festival, UK, June 27, 2010 2010 16 21.11.2018
2009 Live At City Winery, New York, NY, August 24, 2009 2009 20 21.11.2018
2007 Live On KCRW Radio, Santa Monica, CA, June 29, 2007 2007 10 21.11.2018
1990 Live At Godfrey Daniels, Bethlehem, PA, March 23, 1990 (CD 1) 1990 22 21.11.2018
1990 Live At Godfrey Daniels, Bethlehem, PA, March 23, 1990 (CD 2) 1990 19 21.11.2018
1988 Live At Rockefeller's, Houston, TX, June 14, 1988 (CD 1) 1988 13 21.11.2018
1988 Live At Rockefeller's, Houston, TX, June 14, 1988 (CD 2) 1988 12 21.11.2018
1985 Live At Nightstage, Cambridge, MA, December 12, 1985 1985 27 21.11.2018
1983 Live At Ripley Music Hall, Philadelphia, PA, December 19, 1983 (CD 1) 1983 19 21.11.2018
1983 Live At Ripley Music Hall, Philadelphia, PA, December 19, 1983 (CD 2) 1983 13 21.11.2018
1980 Live At Uni-Theater, Bremen, Germany, September 25, 1980 1980 22 21.11.2018
1976 Live At Post-Aula, Bremen, Germany, July 27, 1976 1976 13 21.11.2018
1976 Live On KLOL Radio, Houston, TX, June 2, 1976 1976 9 21.11.2018
 Live Albums
2003 So Damn Happy 2003 17 31.07.2012
1993 Career Moves 1993 24 31.07.2012
1979 A Live One 1979 13 31.07.2012
 Compilations, Remixes
2011 40 Odd Years (CD 1) 2011 24 31.07.2012
2011 40 Odd Years (CD 2) 2011 22 31.07.2012
2011 40 Odd Years (CD 3) 2011 22 31.07.2012
2011 40 Odd Years (CD 4) 2011 23 31.07.2012
2007 Dead Skunk - The Complete Columbia Collection (CD 1) 2007 18 31.07.2012
2007 Dead Skunk - The Complete Columbia Collection (CD 2) 2007 20 31.07.2012
1998 The BBC Sessions 1998 21 31.07.2012
1994 One Man Guy - The Best Of Loudon Wainwright III 1982-1986 1994 21 31.07.2012
Status: Guest
SEARCH
Пользовательского поиска
LOOK ALSO
more info
HISTORY OF ADDITIONS
Mn Tu We Th Fr Sa Su
   1  2  3  4  5  6
 7  8  9  10  11  12  13
 14  15  16  17  18  19  20
 21  22  23  24  25  26  27
 28  29  30        
go top

Media ClubCreated by TDG